Time;durP1;ratioP1;P1;durP2;ratioP2;P2;SDS_P1;SDS_P2;PMS_P1;PMS_P2;Temp;Humidity;BMP_temperature;BMP_pressure;BME280_temperature;BME280_humidity;BME280_pressure;Samples;Min_cycle;Max_cycle;Signal;HPM_P1;HPM_P2
2023/08/14 00:00:20;;;;;;;;;;;20.00;90.80;;;;;;5085724;28;19912;-75
2023/08/14 00:02:45;;;;;;;;;;;20.00;90.80;;;;;;5081354;28;19912;-76
2023/08/14 00:05:11;;;;;;;;;;;20.00;90.90;;;;;;5081062;28;19973;-75
2023/08/14 00:07:36;;;;;;;;;;;20.00;90.90;;;;;;5076371;28;20409;-76
2023/08/14 00:10:02;;;;;;;;;;;20.00;90.80;;;;;;5078478;28;20646;-76
2023/08/14 00:12:27;;;;;;;;;;;19.90;90.90;;;;;;5075286;28;19912;-76
2023/08/14 00:14:53;;;;;;;;;;;19.90;91.00;;;;;;5084439;28;20381;-76
2023/08/14 00:17:18;;;;;;;;;;;20.00;91.00;;;;;;5077571;28;20030;-76
2023/08/14 00:19:44;;;;;;;;;;;19.90;91.00;;;;;;5076868;28;19912;-76
2023/08/14 00:22:11;;;;;;;;;;;19.90;91.00;;;;;;5076342;28;19916;-76
2023/08/14 00:24:37;;;;;;;;;;;19.90;91.10;;;;;;5081159;28;19916;-76
2023/08/14 00:27:02;;;;;;;;;;;19.80;91.00;;;;;;5080483;28;19924;-76
2023/08/14 00:29:28;;;;;;;;;;;19.80;91.00;;;;;;5081340;28;20468;-76
2023/08/14 00:31:53;;;;;;;;;;;19.80;91.10;;;;;;5087207;28;19985;-76
2023/08/14 00:34:19;;;;;;;;;;;19.80;91.10;;;;;;5089223;28;19912;-75
2023/08/14 00:36:44;;;;;;;;;;;19.80;91.10;;;;;;5089078;28;20639;-75
2023/08/14 00:39:10;;;;;;;;;;;19.80;91.20;;;;;;5089275;28;19994;-76
2023/08/14 00:41:37;;;;;;;;;;;19.70;91.20;;;;;;5089364;28;19912;-76
2023/08/14 00:44:02;;;;;;;;;;;19.70;91.20;;;;;;5089054;28;19912;-76
2023/08/14 00:46:28;;;;;;;;;;;19.70;91.30;;;;;;5089340;28;20041;-75
2023/08/14 00:48:53;;;;;;;;;;;19.70;91.30;;;;;;5088806;28;19916;-76
2023/08/14 00:51:22;;;;;;;;;;;19.70;91.30;;;;;;5088842;28;19916;-76
2023/08/14 00:53:48;;;;;;;;;;;19.70;91.30;;;;;;5086410;28;20392;-76
2023/08/14 00:56:14;;;;;;;;;;;19.60;91.30;;;;;;5094924;28;20006;-76
2023/08/14 00:58:40;;;;;;;;;;;19.60;91.30;;;;;;5108138;28;19960;-76
2023/08/14 01:01:05;;;;;;;;;;;19.60;91.40;;;;;;5088808;28;20306;-76
2023/08/14 01:03:32;;;;;;;;;;;19.60;91.30;;;;;;5070025;28;19923;-76
2023/08/14 01:05:57;;;;;;;;;;;19.60;91.40;;;;;;5088629;28;19912;-76
2023/08/14 01:08:23;;;;;;;;;;;19.60;91.50;;;;;;5088474;28;19912;-76
2023/08/14 01:10:59;;;;;;;;;;;19.50;91.50;;;;;;5088505;28;19920;-76
2023/08/14 01:13:34;;;;;;;;;;;19.50;91.50;;;;;;5089509;28;19916;-76
2023/08/14 01:16:03;;;;;;;;;;;19.50;91.50;;;;;;5088557;28;19912;-76
2023/08/14 01:18:30;;;;;;;;;;;19.50;91.40;;;;;;5088054;28;19911;-76
2023/08/14 01:21:14;;;;;;;;;;;19.40;91.40;;;;;;5087981;28;19918;-76
2023/08/14 01:23:59;;;;;;;;;;;19.40;91.50;;;;;;5088141;28;19954;-76
2023/08/14 01:26:25;;;;;;;;;;;19.40;91.60;;;;;;5087617;28;19966;-76
2023/08/14 01:28:51;;;;;;;;;;;19.40;91.70;;;;;;5071106;28;19951;-76
2023/08/14 01:31:17;;;;;;;;;;;19.40;91.60;;;;;;5086625;28;19920;-76
2023/08/14 01:33:42;;;;;;;;;;;19.30;91.70;;;;;;5074097;28;19931;-76
2023/08/14 01:36:07;;;;;;;;;;;19.40;91.70;;;;;;5088352;28;19912;-75
2023/08/14 01:38:33;;;;;;;;;;;19.30;91.70;;;;;;5088223;28;19943;-75
2023/08/14 01:40:58;;;;;;;;;;;19.30;91.70;;;;;;5089640;28;19968;-76
2023/08/14 01:43:30;;;;;;;;;;;19.30;91.80;;;;;;5088515;28;20265;-76
2023/08/14 01:45:56;;;;;;;;;;;19.30;91.80;;;;;;5087787;28;19908;-76
2023/08/14 01:48:22;;;;;;;;;;;19.30;91.80;;;;;;5088620;28;19919;-75
2023/08/14 01:50:48;;;;;;;;;;;19.30;91.80;;;;;;5088269;28;19923;-76
2023/08/14 01:53:16;;;;;;;;;;;19.20;91.90;;;;;;5088382;28;20654;-76
2023/08/14 01:55:42;;;;;;;;;;;19.20;91.90;;;;;;5061592;28;19918;-76
2023/08/14 01:58:07;;;;;;;;;;;19.20;91.80;;;;;;5069583;28;19913;-75
2023/08/14 02:00:34;;;;;;;;;;;19.20;91.90;;;;;;5087726;28;20373;-75
2023/08/14 02:03:00;;;;;;;;;;;19.20;92.00;;;;;;5087956;28;19912;-76
2023/08/14 02:05:25;;;;;;;;;;;19.10;91.90;;;;;;5069257;28;19912;-76
2023/08/14 02:07:51;;;;;;;;;;;19.10;91.90;;;;;;5087998;28;19919;-76
2023/08/14 02:10:16;;;;;;;;;;;19.10;92.00;;;;;;5087809;28;19916;-76
2023/08/14 02:12:42;;;;;;;;;;;19.10;92.00;;;;;;5105356;28;19922;-76
2023/08/14 02:15:07;;;;;;;;;;;19.10;92.00;;;;;;5108318;28;19972;-75
2023/08/14 02:17:33;;;;;;;;;;;19.10;92.00;;;;;;5107993;28;20311;-76
2023/08/14 02:19:58;;;;;;;;;;;19.00;92.00;;;;;;5108237;28;19911;-76
2023/08/14 02:22:24;;;;;;;;;;;19.00;92.10;;;;;;5093745;28;19919;-76
2023/08/14 02:24:49;;;;;;;;;;;19.00;92.10;;;;;;5087483;28;20644;-75
2023/08/14 02:27:15;;;;;;;;;;;19.00;92.20;;;;;;5087662;28;20011;-76
2023/08/14 02:29:40;;;;;;;;;;;19.00;92.10;;;;;;5093035;28;19984;-75
2023/08/14 02:32:06;;;;;;;;;;;18.90;92.20;;;;;;5092054;28;20277;-76
2023/08/14 02:34:53;;;;;;;;;;;18.90;92.00;;;;;;5090950;28;20407;-76
2023/08/14 02:37:19;;;;;;;;;;;18.90;92.20;;;;;;5094114;28;19969;-76
2023/08/14 02:39:45;;;;;;;;;;;18.90;92.20;;;;;;5091647;28;19920;-76
2023/08/14 02:42:10;;;;;;;;;;;18.90;92.40;;;;;;5091476;28;20448;-76
2023/08/14 02:44:37;;;;;;;;;;;18.80;92.40;;;;;;5091538;28;19954;-76
2023/08/14 02:47:02;;;;;;;;;;;18.80;92.30;;;;;;5073122;28;19922;-75
2023/08/14 02:49:28;;;;;;;;;;;18.80;92.40;;;;;;5091785;28;19912;-76
2023/08/14 02:51:54;;;;;;;;;;;18.80;92.40;;;;;;5097663;28;20268;-76
2023/08/14 02:54:19;;;;;;;;;;;18.80;92.40;;;;;;5105087;28;20527;-76
2023/08/14 02:56:45;;;;;;;;;;;18.80;92.50;;;;;;5091573;28;19912;-76
2023/08/14 02:59:11;;;;;;;;;;;18.70;92.30;;;;;;5091344;28;19919;-75
2023/08/14 03:01:37;;;;;;;;;;;18.70;92.70;;;;;;5073124;28;19973;-75
2023/08/14 03:04:02;;;;;;;;;;;18.60;92.50;;;;;;5090498;28;20653;-76
2023/08/14 03:06:30;;;;;;;;;;;18.70;92.50;;;;;;5090490;28;19968;-75
2023/08/14 03:08:56;;;;;;;;;;;18.70;92.60;;;;;;5101841;28;20487;-76
2023/08/14 03:11:22;;;;;;;;;;;18.60;92.40;;;;;;5110917;28;19916;-75
2023/08/14 03:13:48;;;;;;;;;;;18.60;92.60;;;;;;5111371;28;19977;-76
2023/08/14 03:16:13;;;;;;;;;;;18.60;92.60;;;;;;5111189;28;19911;-76
2023/08/14 03:18:38;;;;;;;;;;;18.60;92.70;;;;;;5111216;28;19911;-76
2023/08/14 03:21:04;;;;;;;;;;;18.50;92.70;;;;;;5108728;28;19912;-76
2023/08/14 03:23:30;;;;;;;;;;;18.50;92.70;;;;;;5090568;28;19912;-76
2023/08/14 03:25:55;;;;;;;;;;;18.50;92.80;;;;;;5091825;28;20561;-76
2023/08/14 03:28:21;;;;;;;;;;;18.50;92.80;;;;;;5090986;28;19920;-76
2023/08/14 03:30:48;;;;;;;;;;;18.50;92.80;;;;;;5090438;28;19916;-76
2023/08/14 03:33:13;;;;;;;;;;;18.40;92.80;;;;;;5090592;28;19912;-76
2023/08/14 03:35:39;;;;;;;;;;;18.40;93.00;;;;;;5089687;28;19916;-76
2023/08/14 03:38:04;;;;;;;;;;;18.40;93.00;;;;;;5090510;28;20031;-75
2023/08/14 03:40:30;;;;;;;;;;;18.40;93.00;;;;;;5091346;28;19985;-76
2023/08/14 03:42:55;;;;;;;;;;;18.40;93.00;;;;;;5090341;28;19912;-76
2023/08/14 03:45:21;;;;;;;;;;;18.40;93.00;;;;;;5090364;28;20331;-76
2023/08/14 03:47:46;;;;;;;;;;;18.40;93.10;;;;;;5090270;28;19919;-76
2023/08/14 03:50:12;;;;;;;;;;;18.30;92.90;;;;;;5090566;28;20014;-76
2023/08/14 03:52:37;;;;;;;;;;;18.30;93.30;;;;;;5090335;28;19912;-76
2023/08/14 03:55:03;;;;;;;;;;;18.30;93.00;;;;;;5089848;28;20437;-76
2023/08/14 03:57:28;;;;;;;;;;;18.30;93.00;;;;;;5098344;28;19916;-76
2023/08/14 03:59:54;;;;;;;;;;;18.30;93.20;;;;;;5098811;28;19912;-76
2023/08/14 04:02:19;;;;;;;;;;;18.30;93.30;;;;;;5089999;28;19916;-76
2023/08/14 04:04:45;;;;;;;;;;;18.20;93.10;;;;;;5090104;28;19913;-76
2023/08/14 04:07:10;;;;;;;;;;;18.20;93.20;;;;;;5089485;28;19992;-75
2023/08/14 04:09:36;;;;;;;;;;;18.20;93.20;;;;;;5090192;28;19947;-76
2023/08/14 04:12:02;;;;;;;;;;;18.20;93.20;;;;;;5090019;28;19916;-76
2023/08/14 04:14:28;;;;;;;;;;;18.10;93.10;;;;;;5105500;28;19915;-76
2023/08/14 04:16:54;;;;;;;;;;;18.10;93.20;;;;;;5110291;28;19942;-76
2023/08/14 04:19:20;;;;;;;;;;;18.10;93.10;;;;;;5110219;28;20317;-76
2023/08/14 04:21:45;;;;;;;;;;;18.10;93.10;;;;;;5101001;28;20609;-76
2023/08/14 04:24:11;;;;;;;;;;;18.10;93.10;;;;;;5088527;28;19924;-76
2023/08/14 04:26:37;;;;;;;;;;;18.10;93.20;;;;;;5088300;28;19950;-75
2023/08/14 04:29:04;;;;;;;;;;;18.10;93.20;;;;;;5088125;28;19916;-75
2023/08/14 04:31:30;;;;;;;;;;;18.00;93.20;;;;;;5085601;28;19920;-75
2023/08/14 04:33:55;;;;;;;;;;;18.10;93.30;;;;;;5083690;28;20364;-76
2023/08/14 04:36:21;;;;;;;;;;;18.00;93.30;;;;;;5071665;28;19919;-76
2023/08/14 04:38:46;;;;;;;;;;;18.00;93.20;;;;;;5073482;28;19918;-76
2023/08/14 04:41:12;;;;;;;;;;;18.00;93.30;;;;;;5074300;28;20015;-76
2023/08/14 04:43:37;;;;;;;;;;;18.00;93.30;;;;;;5082565;28;20432;-75
2023/08/14 04:46:07;;;;;;;;;;;18.00;93.30;;;;;;5090504;28;19920;-76
2023/08/14 04:48:33;;;;;;;;;;;18.00;93.40;;;;;;5095948;28;23391;-76
2023/08/14 04:50:58;;;;;;;;;;;17.90;93.40;;;;;;5094151;28;19916;-76
2023/08/14 04:53:24;;;;;;;;;;;17.90;93.40;;;;;;5085432;28;20307;-76
2023/08/14 04:55:51;;;;;;;;;;;17.90;93.40;;;;;;5091162;28;19908;-76
2023/08/14 04:58:16;;;;;;;;;;;17.90;93.30;;;;;;5092214;28;19947;-76
2023/08/14 05:00:42;;;;;;;;;;;17.90;93.40;;;;;;5087067;28;19936;-76
2023/08/14 05:03:07;;;;;;;;;;;17.90;93.40;;;;;;5085472;28;20406;-76
2023/08/14 05:05:33;;;;;;;;;;;17.90;93.40;;;;;;5089796;28;19965;-75
2023/08/14 05:07:58;;;;;;;;;;;17.90;93.40;;;;;;5088700;28;19912;-76
2023/08/14 05:10:24;;;;;;;;;;;17.90;93.40;;;;;;5088781;28;19958;-76
2023/08/14 05:12:49;;;;;;;;;;;17.90;93.30;;;;;;5085860;28;19973;-75
2023/08/14 05:15:15;;;;;;;;;;;17.90;93.40;;;;;;5088474;28;20002;-76
2023/08/14 05:17:40;;;;;;;;;;;17.80;93.30;;;;;;5090047;28;19916;-76
2023/08/14 05:20:06;;;;;;;;;;;17.80;93.30;;;;;;5088490;28;20282;-76
2023/08/14 05:22:32;;;;;;;;;;;17.90;93.50;;;;;;5087671;28;19908;-76
2023/08/14 05:24:57;;;;;;;;;;;17.80;93.40;;;;;;5088662;28;19920;-76
2023/08/14 05:27:23;;;;;;;;;;;17.80;93.50;;;;;;5082251;28;19912;-76
2023/08/14 05:29:48;;;;;;;;;;;17.80;93.40;;;;;;5085033;28;20440;-75
2023/08/14 05:32:14;;;;;;;;;;;17.80;93.40;;;;;;5083560;28;19956;-76
2023/08/14 05:34:39;;;;;;;;;;;17.80;93.30;;;;;;5086084;28;19919;-75
2023/08/14 05:37:05;;;;;;;;;;;17.80;93.40;;;;;;5081434;28;19920;-76
2023/08/14 05:39:30;;;;;;;;;;;17.80;93.40;;;;;;5078629;28;20015;-76
2023/08/14 05:41:56;;;;;;;;;;;17.80;93.40;;;;;;5073147;28;19912;-75
2023/08/14 05:44:21;;;;;;;;;;;17.80;93.50;;;;;;5072279;28;20663;-76
2023/08/14 05:46:47;;;;;;;;;;;17.80;93.40;;;;;;5074846;28;19908;-76
2023/08/14 05:49:12;;;;;;;;;;;17.90;93.50;;;;;;5075181;28;19919;-76
2023/08/14 05:51:38;;;;;;;;;;;17.90;93.30;;;;;;5068308;28;19920;-76
2023/08/14 05:54:03;;;;;;;;;;;17.90;93.30;;;;;;5087606;28;20016;-76
2023/08/14 05:56:29;;;;;;;;;;;17.90;93.20;;;;;;5086823;28;19961;-75
2023/08/14 05:58:57;;;;;;;;;;;17.90;93.30;;;;;;5087628;28;20264;-76
2023/08/14 06:01:23;;;;;;;;;;;17.90;93.30;;;;;;5069359;28;19920;-76
2023/08/14 06:03:49;;;;;;;;;;;17.90;93.30;;;;;;5087617;28;19915;-76
2023/08/14 06:06:15;;;;;;;;;;;17.90;93.20;;;;;;5069346;28;19961;-76
2023/08/14 06:08:41;;;;;;;;;;;17.90;93.30;;;;;;5101819;28;20284;-76
2023/08/14 06:11:06;;;;;;;;;;;17.90;93.20;;;;;;5108115;28;19920;-76
2023/08/14 06:13:32;;;;;;;;;;;18.00;93.20;;;;;;5107772;28;19973;-76
2023/08/14 06:15:57;;;;;;;;;;;18.00;93.30;;;;;;5107853;28;19918;-75
2023/08/14 06:18:23;;;;;;;;;;;18.00;93.20;;;;;;5107839;28;19964;-76
2023/08/14 06:20:51;;;;;;;;;;;18.00;93.20;;;;;;5107153;28;19964;-75
2023/08/14 06:23:17;;;;;;;;;;;18.10;93.20;;;;;;5080601;28;19915;-75
2023/08/14 06:25:42;;;;;;;;;;;18.10;93.20;;;;;;5088741;28;20567;-75
2023/08/14 06:28:08;;;;;;;;;;;18.10;93.20;;;;;;5087676;28;19912;-75
2023/08/14 06:30:34;;;;;;;;;;;18.10;93.10;;;;;;5087202;28;20461;-76
2023/08/14 06:33:01;;;;;;;;;;;18.20;93.10;;;;;;5101965;28;20592;-76
2023/08/14 06:35:26;;;;;;;;;;;18.20;93.20;;;;;;5086953;28;19912;-76
2023/08/14 06:37:52;;;;;;;;;;;18.20;93.10;;;;;;5087454;28;19927;-76
2023/08/14 06:40:17;;;;;;;;;;;18.30;93.10;;;;;;5088540;28;20288;-75
2023/08/14 06:42:43;;;;;;;;;;;18.30;93.10;;;;;;5087592;28;19919;-76
2023/08/14 06:45:09;;;;;;;;;;;18.30;93.00;;;;;;5087508;28;19912;-76
2023/08/14 06:47:41;;;;;;;;;;;18.40;93.00;;;;;;5086663;28;19916;-75
2023/08/14 06:50:07;;;;;;;;;;;18.40;93.00;;;;;;5086912;28;20380;-76
2023/08/14 06:52:32;;;;;;;;;;;18.50;92.90;;;;;;5087117;28;19912;-76
2023/08/14 06:54:58;;;;;;;;;;;18.50;92.80;;;;;;5087210;28;19912;-76
2023/08/14 06:57:23;;;;;;;;;;;18.50;92.80;;;;;;5088267;28;20364;-76
2023/08/14 06:59:49;;;;;;;;;;;18.60;92.90;;;;;;5087402;28;20008;-76
2023/08/14 07:02:15;;;;;;;;;;;18.60;92.80;;;;;;5087273;28;19919;-76
2023/08/14 07:04:40;;;;;;;;;;;18.60;92.80;;;;;;5087121;28;19990;-75
2023/08/14 07:07:06;;;;;;;;;;;18.70;92.80;;;;;;5068429;28;19999;-76
2023/08/14 07:09:33;;;;;;;;;;;18.70;92.80;;;;;;5093881;28;20456;-76
2023/08/14 07:11:58;;;;;;;;;;;18.80;92.70;;;;;;5107056;28;19919;-76
2023/08/14 07:14:23;;;;;;;;;;;18.80;92.70;;;;;;5107200;28;20281;-76
2023/08/14 07:16:49;;;;;;;;;;;18.80;92.70;;;;;;5109911;28;19911;-76
2023/08/14 07:19:17;;;;;;;;;;;18.90;92.60;;;;;;5110813;28;20008;-76
2023/08/14 07:21:43;;;;;;;;;;;18.90;92.60;;;;;;5084577;28;19919;-76
2023/08/14 07:24:08;;;;;;;;;;;19.00;92.50;;;;;;5091287;28;19916;-76
2023/08/14 07:26:34;;;;;;;;;;;19.00;92.50;;;;;;5089450;28;19919;-76
2023/08/14 07:28:59;;;;;;;;;;;19.10;92.50;;;;;;5070950;28;20523;-76
2023/08/14 07:31:25;;;;;;;;;;;19.10;92.40;;;;;;5087283;28;19979;-76
2023/08/14 07:33:50;;;;;;;;;;;19.20;92.30;;;;;;5090842;28;20562;-76
2023/08/14 07:36:16;;;;;;;;;;;19.20;92.30;;;;;;5090474;28;19913;-76
2023/08/14 07:38:41;;;;;;;;;;;19.20;92.30;;;;;;5090584;28;19927;-75
2023/08/14 07:41:07;;;;;;;;;;;19.20;92.30;;;;;;5094318;28;19915;-76
2023/08/14 07:43:32;;;;;;;;;;;19.30;92.30;;;;;;5090272;28;19940;-75
2023/08/14 07:45:58;;;;;;;;;;;19.20;92.30;;;;;;5090345;28;19962;-77
2023/08/14 07:48:23;;;;;;;;;;;19.30;92.30;;;;;;5089972;28;20351;-76
2023/08/14 07:50:52;;;;;;;;;;;19.30;92.30;;;;;;5090081;28;20028;-76
2023/08/14 07:53:18;;;;;;;;;;;19.30;92.20;;;;;;5090326;28;19951;-76
2023/08/14 07:55:43;;;;;;;;;;;19.40;92.20;;;;;;5089810;28;19966;-77
2023/08/14 07:58:09;;;;;;;;;;;19.50;92.20;;;;;;5094435;28;19916;-77
2023/08/14 08:00:35;;;;;;;;;;;19.50;92.10;;;;;;5089924;28;20499;-76
2023/08/14 08:03:00;;;;;;;;;;;19.60;92.10;;;;;;5090199;28;19981;-77
2023/08/14 08:05:26;;;;;;;;;;;19.60;92.00;;;;;;5090137;28;19916;-77
2023/08/14 08:07:51;;;;;;;;;;;19.60;91.90;;;;;;5089841;28;19912;-76
2023/08/14 08:10:17;;;;;;;;;;;19.60;91.90;;;;;;5090032;28;19916;-76
2023/08/14 08:12:42;;;;;;;;;;;19.70;92.00;;;;;;5073733;28;19912;-77
2023/08/14 08:15:09;;;;;;;;;;;19.80;92.00;;;;;;5110135;28;19912;-77
2023/08/14 08:17:34;;;;;;;;;;;19.80;91.90;;;;;;5110218;28;20276;-77
2023/08/14 08:20:00;;;;;;;;;;;19.80;91.90;;;;;;5091764;28;19912;-76
2023/08/14 08:22:26;;;;;;;;;;;19.80;91.80;;;;;;5095379;28;19912;-76
2023/08/14 08:24:51;;;;;;;;;;;19.90;91.80;;;;;;5089667;28;19916;-76
2023/08/14 08:27:17;;;;;;;;;;;19.90;91.70;;;;;;5088539;28;19908;-77
2023/08/14 08:29:42;;;;;;;;;;;20.00;91.70;;;;;;5094886;28;19923;-77
2023/08/14 08:32:08;;;;;;;;;;;20.00;91.60;;;;;;5109973;28;19920;-78
2023/08/14 08:34:34;;;;;;;;;;;20.00;91.60;;;;;;5078513;28;20476;-78
2023/08/14 08:36:59;;;;;;;;;;;20.00;91.70;;;;;;5089173;28;20373;-76
2023/08/14 08:39:25;;;;;;;;;;;19.90;91.70;;;;;;5088527;28;19915;-76
2023/08/14 08:41:51;;;;;;;;;;;19.90;91.70;;;;;;5109817;28;20060;-76
2023/08/14 08:44:24;;;;;;;;;;;19.90;91.70;;;;;;5109668;28;20402;-75
2023/08/14 08:47:02;;;;;;;;;;;20.00;91.70;;;;;;5103489;28;20372;-76
2023/08/14 08:49:27;;;;;;;;;;;20.00;91.60;;;;;;5085239;28;19924;-75
2023/08/14 08:51:53;;;;;;;;;;;20.10;91.60;;;;;;5088693;28;19924;-75
2023/08/14 08:54:19;;;;;;;;;;;20.10;91.60;;;;;;5088718;28;20258;-75
2023/08/14 08:56:45;;;;;;;;;;;20.10;91.50;;;;;;5097631;28;19922;-77
2023/08/14 08:59:11;;;;;;;;;;;20.10;91.40;;;;;;5104050;28;19919;-75
2023/08/14 09:01:37;;;;;;;;;;;20.20;91.40;;;;;;5088903;28;19908;-75
2023/08/14 09:04:03;;;;;;;;;;;20.20;91.40;;;;;;5088877;28;19920;-76
2023/08/14 09:06:28;;;;;;;;;;;20.20;91.40;;;;;;5093686;28;20387;-76
2023/08/14 09:08:54;;;;;;;;;;;20.20;91.40;;;;;;5109296;28;20372;-78
2023/08/14 09:11:20;;;;;;;;;;;20.20;91.40;;;;;;5109802;28;19976;-77
2023/08/14 09:13:45;;;;;;;;;;;20.20;91.40;;;;;;5109338;28;19918;-77
2023/08/14 09:16:14;;;;;;;;;;;20.30;91.70;;;;;;5109217;28;20008;-76
2023/08/14 09:18:41;;;;;;;;;;;20.30;91.50;;;;;;5108845;28;20365;-77
2023/08/14 09:21:07;;;;;;;;;;;20.30;91.80;;;;;;5097343;28;19997;-75
2023/08/14 09:23:33;;;;;;;;;;;20.40;91.80;;;;;;5088076;28;19920;-75
2023/08/14 09:25:59;;;;;;;;;;;20.40;91.60;;;;;;5088285;28;19916;-75
2023/08/14 09:28:24;;;;;;;;;;;20.40;91.50;;;;;;5084213;28;19912;-74
2023/08/14 09:30:50;;;;;;;;;;;20.40;91.40;;;;;;5076884;28;19995;-75
2023/08/14 09:33:15;;;;;;;;;;;20.50;91.40;;;;;;5080733;28;20363;-76
2023/08/14 09:35:51;;;;;;;;;;;20.50;91.40;;;;;;5088377;28;19911;-75
2023/08/14 09:38:16;;;;;;;;;;;20.60;91.30;;;;;;5086777;28;19911;-75
2023/08/14 09:40:42;;;;;;;;;;;20.60;91.20;;;;;;5084427;28;19912;-77
2023/08/14 09:43:09;;;;;;;;;;;20.70;91.10;;;;;;5085902;28;19912;-76
2023/08/14 09:45:35;;;;;;;;;;;20.70;91.20;;;;;;5083966;28;19915;-77
2023/08/14 09:48:01;;;;;;;;;;;20.80;91.40;;;;;;5083120;28;19957;-77
2023/08/14 09:50:27;;;;;;;;;;;20.80;91.30;;;;;;5081548;28;19919;-76
2023/08/14 09:52:57;;;;;;;;;;;20.80;91.30;;;;;;5081850;28;19912;-77
2023/08/14 09:55:23;;;;;;;;;;;20.90;91.40;;;;;;5078697;28;20513;-77
2023/08/14 09:57:49;;;;;;;;;;;20.90;91.00;;;;;;5081571;28;19912;-77
2023/08/14 10:00:15;;;;;;;;;;;21.00;91.10;;;;;;5088384;28;20040;-77
2023/08/14 10:02:40;;;;;;;;;;;21.00;91.10;;;;;;5089361;28;19920;-76
2023/08/14 10:05:09;;;;;;;;;;;21.00;91.30;;;;;;5103209;28;20300;-79
2023/08/14 10:07:34;;;;;;;;;;;21.10;91.10;;;;;;5093044;28;19919;-75
2023/08/14 10:10:02;;;;;;;;;;;21.10;90.80;;;;;;5088024;28;19908;-77
2023/08/14 10:12:28;;;;;;;;;;;21.20;90.50;;;;;;5098706;28;20010;-79
2023/08/14 10:15:14;;;;;;;;;;;21.20;90.20;;;;;;5092886;28;19959;-78
2023/08/14 10:17:56;;;;;;;;;;;21.30;90.30;;;;;;5087798;28;19958;-77
2023/08/14 10:20:24;;;;;;;;;;;21.30;90.20;;;;;;5087907;28;19985;-75
2023/08/14 10:22:52;;;;;;;;;;;21.40;90.10;;;;;;5086751;28;20006;-77
2023/08/14 10:25:19;;;;;;;;;;;21.40;90.10;;;;;;5087708;28;19926;-75
2023/08/14 10:27:45;;;;;;;;;;;21.50;90.30;;;;;;5093577;28;20353;-75
2023/08/14 10:30:11;;;;;;;;;;;21.50;89.90;;;;;;5087232;28;19916;-75
2023/08/14 10:32:37;;;;;;;;;;;21.60;90.00;;;;;;5082931;28;19939;-75
2023/08/14 10:35:03;;;;;;;;;;;21.70;90.00;;;;;;5082848;28;19916;-75
2023/08/14 10:37:40;;;;;;;;;;;21.70;89.50;;;;;;5089662;28;19912;-74
2023/08/14 10:40:17;;;;;;;;;;;21.80;89.50;;;;;;5064073;28;19957;-74
2023/08/14 10:42:44;;;;;;;;;;;21.90;89.90;;;;;;5078176;28;19990;-74
2023/08/14 10:45:09;;;;;;;;;;;21.90;90.00;;;;;;5079146;28;20305;-74
2023/08/14 10:47:37;;;;;;;;;;;21.90;90.10;;;;;;5080931;28;19915;-74
2023/08/14 10:50:11;;;;;;;;;;;22.10;89.70;;;;;;5081262;28;19958;-72
2023/08/14 10:52:37;;;;;;;;;;;22.20;89.40;;;;;;5066331;28;19959;-74
2023/08/14 10:55:02;;;;;;;;;;;22.20;88.60;;;;;;5090038;28;19995;-73
2023/08/14 10:57:28;;;;;;;;;;;22.30;89.20;;;;;;5083101;28;20254;-74
2023/08/14 10:59:54;;;;;;;;;;;22.30;89.10;;;;;;5089588;28;19962;-75
2023/08/14 11:02:20;;;;;;;;;;;22.20;89.20;;;;;;5110147;28;19934;-74
2023/08/14 11:05:04;;;;;;;;;;;22.30;88.90;;;;;;5090058;28;20473;-73
2023/08/14 11:07:32;;;;;;;;;;;22.30;89.40;;;;;;5075584;28;19920;-74
2023/08/14 11:09:58;;;;;;;;;;;22.20;89.60;;;;;;5074715;28;20464;-76
2023/08/14 11:12:23;;;;;;;;;;;22.20;89.80;;;;;;5090974;28;20002;-75
2023/08/14 11:14:49;;;;;;;;;;;22.20;90.10;;;;;;5091006;28;19912;-74
2023/08/14 11:17:14;;;;;;;;;;;22.20;90.00;;;;;;5076952;28;19951;-75
2023/08/14 11:19:40;;;;;;;;;;;22.10;90.10;;;;;;5110988;28;20280;-75
2023/08/14 11:22:06;;;;;;;;;;;22.20;90.30;;;;;;5099423;28;19966;-74
2023/08/14 11:24:36;;;;;;;;;;;22.30;90.30;;;;;;5090613;28;19924;-75
2023/08/14 11:27:02;;;;;;;;;;;22.40;90.10;;;;;;5090516;28;19919;-75
2023/08/14 11:29:28;;;;;;;;;;;22.40;90.00;;;;;;5098427;28;19911;-74
2023/08/14 11:31:54;;;;;;;;;;;22.50;89.40;;;;;;5110579;28;19919;-74
2023/08/14 11:34:20;;;;;;;;;;;22.60;89.10;;;;;;5099141;28;20381;-73
2023/08/14 11:36:58;;;;;;;;;;;22.60;89.20;;;;;;5088651;28;20258;-75
2023/08/14 11:39:24;;;;;;;;;;;22.70;89.10;;;;;;5088361;28;19933;-73
2023/08/14 11:41:50;;;;;;;;;;;22.80;89.60;;;;;;5070779;28;20280;-73
2023/08/14 11:44:15;;;;;;;;;;;22.80;89.40;;;;;;5090041;28;20349;-74
2023/08/14 11:46:41;;;;;;;;;;;22.90;89.60;;;;;;5090885;28;19916;-74
2023/08/14 11:49:07;;;;;;;;;;;22.90;90.20;;;;;;5090371;28;20339;-74
2023/08/14 11:51:32;;;;;;;;;;;23.00;90.20;;;;;;5090100;28;19916;-74
2023/08/14 11:53:58;;;;;;;;;;;23.00;89.90;;;;;;5090003;28;19916;-73
2023/08/14 11:56:24;;;;;;;;;;;23.10;89.60;;;;;;5078764;28;19912;-74
2023/08/14 11:58:49;;;;;;;;;;;23.20;89.20;;;;;;5100754;28;19975;-74
2023/08/14 12:01:15;;;;;;;;;;;23.30;89.10;;;;;;5089009;28;19912;-74
2023/08/14 12:03:41;;;;;;;;;;;23.40;89.80;;;;;;5089201;28;19965;-74
2023/08/14 12:06:07;;;;;;;;;;;23.50;89.50;;;;;;5088987;28;19912;-74
2023/08/14 12:08:32;;;;;;;;;;;23.60;88.90;;;;;;5089513;28;19918;-73
2023/08/14 12:10:58;;;;;;;;;;;23.60;89.10;;;;;;5089250;28;20018;-74
2023/08/14 12:13:24;;;;;;;;;;;23.60;89.70;;;;;;5089869;28;19908;-73
2023/08/14 12:15:49;;;;;;;;;;;23.80;89.30;;;;;;5088353;28;19920;-74
2023/08/14 12:18:24;;;;;;;;;;;23.90;89.90;;;;;;5086672;28;19962;-74
2023/08/14 12:20:50;;;;;;;;;;;23.90;89.90;;;;;;5101699;28;19942;-74
2023/08/14 12:23:16;;;;;;;;;;;24.00;90.00;;;;;;5089466;28;19908;-74
2023/08/14 12:25:41;;;;;;;;;;;24.20;89.80;;;;;;5089166;28;19916;-74
2023/08/14 12:28:07;;;;;;;;;;;24.30;89.10;;;;;;5070096;28;19912;-73
2023/08/14 12:30:32;;;;;;;;;;;24.30;88.50;;;;;;5090509;28;19920;-74
2023/08/14 12:32:58;;;;;;;;;;;24.50;89.70;;;;;;5107381;28;19912;-74
2023/08/14 12:35:23;;;;;;;;;;;24.50;90.20;;;;;;5100088;28;19915;-74
2023/08/14 12:37:49;;;;;;;;;;;24.60;90.30;;;;;;5110015;28;19994;-74
2023/08/14 12:40:14;;;;;;;;;;;24.60;90.30;;;;;;5091682;28;20006;-74
2023/08/14 12:42:40;;;;;;;;;;;24.70;90.00;;;;;;5093243;28;19912;-74
2023/08/14 12:45:05;;;;;;;;;;;24.70;90.30;;;;;;5089212;28;20539;-74
2023/08/14 12:47:31;;;;;;;;;;;24.80;90.00;;;;;;5088762;28;19962;-74
2023/08/14 12:49:57;;;;;;;;;;;24.90;90.20;;;;;;5105951;28;19919;-74
2023/08/14 12:52:22;;;;;;;;;;;24.90;88.90;;;;;;5109339;28;19915;-75
2023/08/14 12:54:48;;;;;;;;;;;25.00;90.30;;;;;;5098140;28;20620;-74
2023/08/14 12:57:13;;;;;;;;;;;25.10;89.40;;;;;;5070709;28;19912;-74
2023/08/14 12:59:39;;;;;;;;;;;25.20;89.00;;;;;;5083513;28;19923;-74
2023/08/14 13:02:05;;;;;;;;;;;25.20;88.70;;;;;;5086298;28;19916;-74
2023/08/14 13:04:30;;;;;;;;;;;25.30;89.10;;;;;;5087422;28;20014;-75
2023/08/14 13:06:56;;;;;;;;;;;25.30;88.80;;;;;;5088245;28;19926;-73
2023/08/14 13:09:21;;;;;;;;;;;25.30;88.10;;;;;;5089003;28;19908;-74
2023/08/14 13:11:47;;;;;;;;;;;25.40;88.10;;;;;;5088854;28;19981;-74
2023/08/14 13:14:12;;;;;;;;;;;25.40;88.20;;;;;;5088211;28;20555;-75
2023/08/14 13:16:38;;;;;;;;;;;25.40;88.20;;;;;;5070214;28;19995;-75
2023/08/14 13:19:03;;;;;;;;;;;25.40;87.80;;;;;;5088378;28;19912;-73
2023/08/14 13:21:29;;;;;;;;;;;25.40;88.70;;;;;;5089047;28;20002;-73
2023/08/14 13:23:55;;;;;;;;;;;25.40;89.50;;;;;;5093595;28;20293;-74
2023/08/14 13:26:20;;;;;;;;;;;25.50;89.50;;;;;;5088408;28;20007;-75
2023/08/14 13:28:46;;;;;;;;;;;25.60;89.10;;;;;;5088926;28;19920;-76
2023/08/14 13:31:11;;;;;;;;;;;25.60;88.90;;;;;;5068553;28;19920;-75
2023/08/14 13:33:37;;;;;;;;;;;25.70;88.70;;;;;;5082482;28;20785;-73
2023/08/14 13:36:02;;;;;;;;;;;25.80;88.80;;;;;;5087554;28;19943;-76
2023/08/14 13:38:28;;;;;;;;;;;25.80;89.00;;;;;;5093667;28;19916;-72
2023/08/14 13:40:54;;;;;;;;;;;25.70;88.90;;;;;;5088496;28;20003;-73
2023/08/14 13:43:19;;;;;;;;;;;25.80;89.30;;;;;;5088081;28;20269;-71
2023/08/14 13:45:45;;;;;;;;;;;25.80;89.20;;;;;;5079683;28;19912;-72
2023/08/14 13:48:11;;;;;;;;;;;25.80;89.50;;;;;;5087994;28;19951;-74
2023/08/14 13:50:37;;;;;;;;;;;25.80;89.40;;;;;;5069045;28;19943;-76
2023/08/14 13:53:03;;;;;;;;;;;25.90;89.10;;;;;;5088798;28;19916;-76
2023/08/14 13:55:29;;;;;;;;;;;26.00;89.10;;;;;;5070233;28;20466;-76
2023/08/14 13:57:55;;;;;;;;;;;26.00;88.80;;;;;;5066447;28;20414;-75
2023/08/14 14:00:21;;;;;;;;;;;26.10;88.70;;;;;;5083996;28;19940;-75
2023/08/14 14:02:46;;;;;;;;;;;26.20;88.40;;;;;;5088037;28;19999;-74
2023/08/14 14:05:12;;;;;;;;;;;26.30;88.50;;;;;;5087710;28;19915;-74
2023/08/14 14:07:37;;;;;;;;;;;26.30;88.50;;;;;;5087653;28;19943;-74
2023/08/14 14:10:03;;;;;;;;;;;26.40;89.10;;;;;;5097198;28;20538;-75